Brushy, Iowa
Current Conditions -  °F | °C
As of 3:35 AM on Friday 28 Nov 2014 (Local Time) from KEBS Reporting Station
Light Snow Light Snow  
Wind Chill: -2°   Ceiling: 12000
Heat Index: 16°   Visibility: 10mi
Dew Point: 12°   Wind: 21mph
Humidity: 86%   Direction: 150°SSE
Pressure: 30.04"   Gusts: NA
Location:  42.4323°N, 94.0232°W
Report Text: KEBS 280935Z AUTO 15018KT 10SM -SN OVC120 M09/M11 A3004 RMK AO2
Loading
Personal Weather Stations






























Interactive Weather Map New forecast layout! Learn more

10-Day Weather Forecast

Advertisements
Track Severe Weather on mobile